createdAt,value
2019-04-29T00:00:14.276Z,99.90
2019-04-29T00:02:42.919Z,99.90
2019-04-29T00:05:11.971Z,99.90
2019-04-29T00:07:43.764Z,99.90
2019-04-29T00:10:16.325Z,99.90
2019-04-29T00:12:45.241Z,99.90
2019-04-29T00:15:17.294Z,99.90
2019-04-29T00:17:53.311Z,99.90
2019-04-29T00:20:30.109Z,99.90
2019-04-29T00:22:59.509Z,99.90
2019-04-29T00:25:30.103Z,99.90
2019-04-29T00:27:59.819Z,99.90
2019-04-29T00:30:29.234Z,99.90
2019-04-29T00:32:57.862Z,99.90
2019-04-29T00:35:26.640Z,99.90
2019-04-29T00:38:02.289Z,99.90
2019-04-29T00:40:39.140Z,99.90
2019-04-29T00:43:12.969Z,99.90
2019-04-29T00:45:43.252Z,99.90
2019-04-29T00:48:12.010Z,99.90
2019-04-29T00:50:40.775Z,99.90
2019-04-29T00:53:11.009Z,99.90
2019-04-29T00:55:40.925Z,99.90
2019-04-29T00:58:09.944Z,99.90
2019-04-29T01:00:41.665Z,99.90
2019-04-29T01:03:13.315Z,99.90
2019-04-29T01:05:42.607Z,99.90
2019-04-29T01:08:11.396Z,99.90
2019-04-29T01:10:41.216Z,99.90
2019-04-29T01:13:11.753Z,99.90
2019-04-29T01:15:40.333Z,99.90
2019-04-29T01:18:10.383Z,99.90
2019-04-29T01:20:39.061Z,99.90
2019-04-29T01:23:10.467Z,99.90
2019-04-29T01:25:40.897Z,99.90
2019-04-29T01:28:21.458Z,99.90
2019-04-29T01:30:55.954Z,99.90
2019-04-29T01:33:27.902Z,99.90
2019-04-29T01:36:16.013Z,99.90
2019-04-29T01:38:48.599Z,99.90
2019-04-29T01:41:25.980Z,99.90
2019-04-29T01:44:01.864Z,99.90
2019-04-29T01:46:33.902Z,99.90
2019-04-29T01:49:02.713Z,99.90
2019-04-29T01:51:32.557Z,99.90
2019-04-29T01:54:01.146Z,99.90
2019-04-29T01:56:32.089Z,99.90
2019-04-29T01:59:00.931Z,99.90
2019-04-29T02:01:29.659Z,99.90
2019-04-29T02:03:58.264Z,99.90
2019-04-29T02:06:28.074Z,99.90
2019-04-29T02:08:58.012Z,99.90
2019-04-29T02:11:26.899Z,99.90
2019-04-29T02:13:55.626Z,99.90
2019-04-29T02:16:26.013Z,99.90
2019-04-29T02:18:56.691Z,99.90
2019-04-29T02:21:25.376Z,99.90
2019-04-29T02:23:59.864Z,99.90
2019-04-29T02:26:30.005Z,99.90
2019-04-29T02:28:58.855Z,99.90
2019-04-29T02:31:38.396Z,99.90
2019-04-29T02:34:07.690Z,99.90
2019-04-29T02:36:42.748Z,99.90
2019-04-29T02:39:22.113Z,99.90
2019-04-29T02:42:08.389Z,99.90
2019-04-29T02:44:40.638Z,99.90
2019-04-29T02:47:11.291Z,99.90
2019-04-29T02:49:40.207Z,99.90
2019-04-29T02:52:10.178Z,99.90
2019-04-29T02:54:43.951Z,99.90
2019-04-29T02:57:17.600Z,99.90
2019-04-29T03:00:00.164Z,99.90
2019-04-29T03:02:30.410Z,99.90
2019-04-29T03:05:19.493Z,99.90
2019-04-29T03:07:49.872Z,99.90
2019-04-29T03:10:21.903Z,99.90
2019-04-29T03:12:50.608Z,99.90
2019-04-29T03:15:28.309Z,99.90
2019-04-29T03:17:59.962Z,99.90
2019-04-29T03:20:31.887Z,99.90
2019-04-29T03:23:14.214Z,99.90
2019-04-29T03:25:49.642Z,99.90
2019-04-29T03:28:22.415Z,99.90
2019-04-29T03:30:53.668Z,99.90
2019-04-29T03:33:22.449Z,99.90
2019-04-29T03:35:52.969Z,99.90
2019-04-29T03:38:21.683Z,99.90
2019-04-29T03:40:50.454Z,99.90
2019-04-29T03:43:19.261Z,99.90
2019-04-29T03:45:48.111Z,99.90
2019-04-29T03:48:16.849Z,99.90
2019-04-29T03:50:47.357Z,99.90
2019-04-29T03:53:16.072Z,99.90
2019-04-29T03:55:47.181Z,99.90
2019-04-29T03:58:16.329Z,99.90
2019-04-29T04:00:46.707Z,99.90
2019-04-29T04:03:27.455Z,99.90
2019-04-29T04:05:57.716Z,99.90
2019-04-29T04:08:38.959Z,99.90
2019-04-29T04:11:07.927Z,99.90
2019-04-29T04:13:38.528Z,99.90
2019-04-29T04:16:08.749Z,99.90
2019-04-29T04:18:40.679Z,99.90
2019-04-29T04:21:09.435Z,99.90
2019-04-29T04:23:41.151Z,99.90
2019-04-29T04:26:10.673Z,99.90
2019-04-29T04:28:40.738Z,99.90
2019-04-29T04:31:10.954Z,99.90
2019-04-29T04:33:41.517Z,99.90
2019-04-29T04:36:10.710Z,99.90
2019-04-29T04:38:39.380Z,99.90
2019-04-29T04:41:11.250Z,99.90
2019-04-29T04:43:39.930Z,99.90
2019-04-29T04:46:10.429Z,99.90
2019-04-29T04:48:42.117Z,99.90
2019-04-29T04:51:11.025Z,99.90
2019-04-29T04:53:39.816Z,99.90
2019-04-29T04:56:08.536Z,99.90
2019-04-29T04:58:38.621Z,99.90
2019-04-29T05:01:07.437Z,99.90
2019-04-29T05:03:36.174Z,99.90
2019-04-29T05:06:06.480Z,99.90
2019-04-29T05:08:36.110Z,99.90
2019-04-29T05:11:05.328Z,99.90
2019-04-29T05:13:35.759Z,99.90
2019-04-29T05:16:05.623Z,99.90
2019-04-29T05:18:34.803Z,99.90
2019-04-29T05:21:07.876Z,99.90
2019-04-29T05:23:37.827Z,99.90
2019-04-29T05:26:06.651Z,99.90
2019-04-29T05:28:41.282Z,99.90
2019-04-29T05:31:10.227Z,99.90
2019-04-29T05:33:43.383Z,99.90
2019-04-29T05:36:13.514Z,99.90
2019-04-29T05:38:45.187Z,99.20
2019-04-29T05:41:14.041Z,99.40
2019-04-29T05:43:45.254Z,99.30
2019-04-29T05:46:21.370Z,99.00
2019-04-29T05:48:49.110Z,99.00
2019-04-29T05:51:34.671Z,99.00
2019-04-29T05:54:07.862Z,99.00
2019-04-29T05:56:42.186Z,98.90
2019-04-29T05:59:14.015Z,99.30
2019-04-29T06:01:47.279Z,99.00
2019-04-29T06:04:19.898Z,98.80
2019-04-29T06:07:06.703Z,98.30
2019-04-29T06:09:35.686Z,98.50
2019-04-29T06:12:05.799Z,98.50
2019-04-29T06:14:37.147Z,98.10
2019-04-29T06:17:07.815Z,97.90
2019-04-29T06:19:39.323Z,97.40
2019-04-29T06:22:10.173Z,96.80
2019-04-29T06:24:42.247Z,96.10
2019-04-29T06:27:13.688Z,95.80
2019-04-29T06:30:02.879Z,95.50
2019-04-29T06:32:29.800Z,95.20
2019-04-29T06:35:00.643Z,94.50
2019-04-29T06:37:30.012Z,93.10
2019-04-29T06:40:02.342Z,92.80
2019-04-29T06:42:37.661Z,92.20
2019-04-29T06:45:08.356Z,90.60
2019-04-29T06:47:40.678Z,90.60
2019-04-29T06:50:14.861Z,90.00
2019-04-29T06:52:52.174Z,90.50
2019-04-29T06:55:21.901Z,90.40
2019-04-29T06:57:52.493Z,90.50
2019-04-29T07:00:28.815Z,90.70
2019-04-29T07:03:00.263Z,90.00
2019-04-29T07:05:29.869Z,90.40
2019-04-29T07:08:01.204Z,90.30
2019-04-29T07:10:30.405Z,90.10
2019-04-29T07:12:59.982Z,87.50
2019-04-29T07:15:31.127Z,84.00
2019-04-29T07:18:00.172Z,82.70
2019-04-29T07:20:32.563Z,84.00
2019-04-29T07:23:03.920Z,82.10
2019-04-29T07:25:37.722Z,81.20
2019-04-29T07:28:07.327Z,78.60
2019-04-29T07:30:59.233Z,79.00
2019-04-29T07:33:09.856Z,78.30
2019-04-29T07:35:43.144Z,79.40
2019-04-29T07:38:11.906Z,78.30
2019-04-29T07:40:43.370Z,78.00
2019-04-29T07:43:14.004Z,75.90
2019-04-29T07:45:58.922Z,75.00
2019-04-29T07:48:27.030Z,76.90
2019-04-29T07:50:59.412Z,79.20
2019-04-29T07:53:35.203Z,82.30
2019-04-29T07:56:05.799Z,80.20
2019-04-29T07:58:31.992Z,77.50
2019-04-29T08:01:10.830Z,72.30
2019-04-29T08:03:39.597Z,68.60
2019-04-29T08:06:10.062Z,68.30
2019-04-29T08:08:40.260Z,66.80
2019-04-29T08:11:11.691Z,65.70
2019-04-29T08:13:42.804Z,64.00
2019-04-29T08:16:16.714Z,63.70
2019-04-29T08:18:43.375Z,61.10
2019-04-29T08:21:16.730Z,60.20
2019-04-29T08:23:51.333Z,60.60
2019-04-29T08:26:20.606Z,60.60
2019-04-29T08:28:52.983Z,59.00
2019-04-29T08:31:22.246Z,58.00
2019-04-29T08:33:51.303Z,57.70
2019-04-29T08:36:22.418Z,58.20
2019-04-29T08:38:53.740Z,59.10
2019-04-29T08:41:28.491Z,58.60
2019-04-29T08:44:16.351Z,55.90
2019-04-29T08:46:52.035Z,54.50
2019-04-29T08:49:26.023Z,55.70
2019-04-29T08:51:56.187Z,55.20
2019-04-29T08:54:25.427Z,54.80
2019-04-29T08:57:02.900Z,53.70
2019-04-29T08:59:27.211Z,53.00
2019-04-29T09:01:58.255Z,53.30
2019-04-29T09:04:33.256Z,53.60
2019-04-29T09:07:12.464Z,50.80
2019-04-29T09:09:44.633Z,49.40
2019-04-29T09:12:19.265Z,49.50
2019-04-29T09:14:47.135Z,49.30
2019-04-29T09:17:20.545Z,47.80
2019-04-29T09:19:50.490Z,49.30
2019-04-29T09:22:27.058Z,50.10
2019-04-29T09:25:13.002Z,50.40
2019-04-29T09:27:47.691Z,52.90
2019-04-29T09:30:17.779Z,54.40
2019-04-29T09:32:47.424Z,54.10
2019-04-29T09:35:20.098Z,53.00
2019-04-29T09:37:58.393Z,52.80
2019-04-29T09:40:30.063Z,50.30
2019-04-29T09:43:14.546Z,50.40
2019-04-29T09:45:47.403Z,53.40
2019-04-29T09:48:27.786Z,54.90
2019-04-29T09:50:58.914Z,53.10
2019-04-29T09:53:32.004Z,51.40
2019-04-29T09:56:03.633Z,51.10
2019-04-29T09:58:33.046Z,51.50
2019-04-29T10:01:20.921Z,51.00
2019-04-29T10:03:57.193Z,52.30
2019-04-29T10:06:37.258Z,54.40
2019-04-29T10:09:13.151Z,55.40
2019-04-29T10:11:46.853Z,53.90
2019-04-29T10:14:20.216Z,52.10
2019-04-29T10:16:55.466Z,51.30
2019-04-29T10:19:38.656Z,47.50
2019-04-29T10:22:08.228Z,48.60
2019-04-29T10:24:37.637Z,48.30
2019-04-29T10:27:11.024Z,49.10
2019-04-29T10:29:55.257Z,49.70
2019-04-29T10:32:30.717Z,49.90
2019-04-29T10:35:03.710Z,51.20
2019-04-29T10:40:33.679Z,53.40
2019-04-29T10:46:23.787Z,55.50
2019-04-29T10:48:59.206Z,55.80
2019-04-29T10:51:31.393Z,56.60
2019-04-29T10:54:06.376Z,55.50
2019-04-29T10:56:39.301Z,54.70
2019-04-29T10:59:11.164Z,53.80
2019-04-29T11:02:09.153Z,53.20
2019-04-29T11:04:36.329Z,55.30
2019-04-29T11:07:27.547Z,53.70
2019-04-29T11:10:00.064Z,54.00
2019-04-29T11:12:30.918Z,53.90
2019-04-29T11:15:04.260Z,55.30
2019-04-29T11:17:39.822Z,54.10
2019-04-29T11:20:15.739Z,54.50
2019-04-29T11:22:44.831Z,53.20
2019-04-29T11:25:19.124Z,52.70
2019-04-29T11:27:51.326Z,52.30
2019-04-29T11:30:25.361Z,50.50
2019-04-29T11:33:09.574Z,49.10
2019-04-29T11:35:44.492Z,48.30
2019-04-29T11:38:16.230Z,48.10
2019-04-29T11:40:46.244Z,47.80
2019-04-29T11:43:18.832Z,47.40
2019-04-29T11:45:56.062Z,48.50
2019-04-29T11:48:26.940Z,49.70
2019-04-29T11:51:00.135Z,51.60
2019-04-29T11:53:29.917Z,52.90
2019-04-29T11:56:00.290Z,54.00
2019-04-29T11:58:34.174Z,53.20
2019-04-29T12:01:08.439Z,52.70
2019-04-29T12:03:40.044Z,52.50
2019-04-29T12:06:16.227Z,50.20
2019-04-29T12:08:53.029Z,49.80
2019-04-29T12:11:20.116Z,51.40
2019-04-29T12:13:52.106Z,52.10
2019-04-29T12:16:29.853Z,54.60
2019-04-29T12:19:17.112Z,54.90
2019-04-29T12:21:47.694Z,56.20
2019-04-29T12:24:16.767Z,56.90
2019-04-29T12:26:48.162Z,57.10
2019-04-29T12:29:19.484Z,56.50
2019-04-29T12:31:57.103Z,56.60
2019-04-29T12:34:45.026Z,55.00
2019-04-29T12:37:25.687Z,53.70
2019-04-29T12:40:14.467Z,52.00
2019-04-29T12:43:00.034Z,52.90
2019-04-29T12:45:40.490Z,51.30
2019-04-29T12:48:23.459Z,49.70
2019-04-29T12:50:43.844Z,49.10
2019-04-29T12:53:12.761Z,49.80
2019-04-29T12:55:49.011Z,47.90
2019-04-29T12:58:19.438Z,47.10
2019-04-29T13:01:00.940Z,47.20
2019-04-29T13:03:39.700Z,47.70
2019-04-29T13:06:11.531Z,48.20
2019-04-29T13:08:47.999Z,49.40
2019-04-29T13:11:22.357Z,49.20
2019-04-29T13:14:01.789Z,49.00
2019-04-29T13:16:31.744Z,48.80
2019-04-29T13:19:11.404Z,48.90
2019-04-29T13:21:39.496Z,49.10
2019-04-29T13:24:23.556Z,49.10
2019-04-29T13:26:47.399Z,48.60
2019-04-29T13:29:26.994Z,49.30
2019-04-29T13:31:51.488Z,49.20
2019-04-29T13:34:30.997Z,49.50
2019-04-29T13:37:06.622Z,49.50
2019-04-29T13:39:39.005Z,49.10
2019-04-29T13:42:09.061Z,49.60
2019-04-29T13:47:35.291Z,49.30
2019-04-29T13:50:38.196Z,48.20
2019-04-29T13:52:57.803Z,47.70
2019-04-29T13:55:47.260Z,47.30
2019-04-29T13:58:00.304Z,46.60
2019-04-29T14:00:32.619Z,47.00
2019-04-29T14:03:07.206Z,45.80
2019-04-29T14:05:37.798Z,45.60
2019-04-29T14:08:06.778Z,46.50
2019-04-29T14:10:37.204Z,46.20
2019-04-29T14:13:15.143Z,47.30
2019-04-29T14:15:40.478Z,47.50
2019-04-29T14:18:11.604Z,47.70
2019-04-29T14:20:40.289Z,49.00
2019-04-29T14:23:10.286Z,52.10
2019-04-29T14:25:42.187Z,54.50
2019-04-29T14:28:13.115Z,56.40
2019-04-29T14:30:43.750Z,58.70
2019-04-29T14:33:12.492Z,59.10
2019-04-29T14:35:43.725Z,59.40
2019-04-29T14:38:20.103Z,57.80
2019-04-29T14:40:49.219Z,58.30
2019-04-29T14:43:39.731Z,58.80
2019-04-29T14:46:19.570Z,58.30
2019-04-29T14:49:04.217Z,58.60
2019-04-29T14:51:36.909Z,58.60
2019-04-29T14:54:08.698Z,58.70
2019-04-29T14:56:40.082Z,59.40
2019-04-29T14:59:10.001Z,59.40
2019-04-29T15:01:40.329Z,59.20
2019-04-29T15:04:18.612Z,58.70
2019-04-29T15:06:42.060Z,59.00
2019-04-29T15:09:17.695Z,59.60
2019-04-29T15:11:47.595Z,59.20
2019-04-29T15:14:31.994Z,59.30
2019-04-29T15:17:16.002Z,59.80
2019-04-29T15:19:55.392Z,60.30
2019-04-29T15:22:30.591Z,59.50
2019-04-29T15:24:59.438Z,59.90
2019-04-29T15:27:29.314Z,60.00
2019-04-29T15:29:59.250Z,60.70
2019-04-29T15:32:29.401Z,59.80
2019-04-29T15:35:05.210Z,59.30
2019-04-29T15:37:36.407Z,59.40
2019-04-29T15:40:08.262Z,59.50
2019-04-29T15:42:43.255Z,61.10
2019-04-29T15:45:09.735Z,60.30
2019-04-29T15:47:41.702Z,60.30
2019-04-29T15:50:18.720Z,61.10
2019-04-29T15:52:40.583Z,62.10
2019-04-29T15:55:10.603Z,62.60
2019-04-29T15:57:49.728Z,63.20
2019-04-29T16:00:21.833Z,64.60
2019-04-29T16:02:49.989Z,65.90
2019-04-29T16:05:20.301Z,66.80
2019-04-29T16:07:57.262Z,67.60
2019-04-29T16:10:31.129Z,68.00
2019-04-29T16:13:12.555Z,67.00
2019-04-29T16:15:42.005Z,67.60
2019-04-29T16:18:14.725Z,68.30
2019-04-29T16:20:53.296Z,68.70
2019-04-29T16:23:16.375Z,69.10
2019-04-29T16:28:18.279Z,70.40
2019-04-29T16:30:48.659Z,71.50
2019-04-29T16:33:19.131Z,72.20
2019-04-29T16:35:47.799Z,73.00
2019-04-29T16:38:18.085Z,73.40
2019-04-29T16:40:56.555Z,74.30
2019-04-29T16:43:27.675Z,74.70
2019-04-29T16:46:01.679Z,75.00
2019-04-29T16:48:33.551Z,75.40
2019-04-29T16:51:14.605Z,76.60
2019-04-29T16:53:43.534Z,77.30
2019-04-29T16:56:16.028Z,78.00
2019-04-29T16:58:45.129Z,78.60
2019-04-29T17:01:18.817Z,78.80
2019-04-29T17:03:55.488Z,79.10
2019-04-29T17:06:26.199Z,79.80
2019-04-29T17:09:05.125Z,80.40
2019-04-29T17:11:40.089Z,80.30
2019-04-29T17:14:13.029Z,80.70
2019-04-29T17:16:42.367Z,80.60
2019-04-29T17:19:15.804Z,80.40
2019-04-29T17:21:47.728Z,80.00
2019-04-29T17:24:36.183Z,80.00
2019-04-29T17:27:26.528Z,80.00
2019-04-29T17:30:11.153Z,79.80
2019-04-29T17:32:57.059Z,79.90
2019-04-29T17:35:14.119Z,69.30
2019-04-29T17:35:27.935Z,80.40
2019-04-29T17:38:06.902Z,80.70
2019-04-29T17:40:50.499Z,81.00
2019-04-29T17:43:38.191Z,81.20
2019-04-29T17:46:24.062Z,81.60
2019-04-29T17:48:55.670Z,82.20
2019-04-29T17:51:34.047Z,82.70
2019-04-29T17:54:07.217Z,83.00
2019-04-29T17:56:39.179Z,83.30
2019-04-29T17:59:15.861Z,83.80
2019-04-29T18:02:02.662Z,84.20
2019-04-29T18:04:49.620Z,84.90
2019-04-29T18:07:20.812Z,85.00
2019-04-29T18:10:05.057Z,85.40
2019-04-29T18:12:40.948Z,85.60
2019-04-29T18:15:10.668Z,85.60
2019-04-29T18:17:40.430Z,85.70
2019-04-29T18:20:30.752Z,85.80
2019-04-29T18:22:59.195Z,86.00
2019-04-29T18:25:39.823Z,86.30
2019-04-29T18:28:09.763Z,87.20
2019-04-29T18:30:44.644Z,86.40
2019-04-29T18:33:15.098Z,86.80
2019-04-29T18:35:50.748Z,87.00
2019-04-29T18:38:19.463Z,87.30
2019-04-29T18:40:49.571Z,87.70
2019-04-29T18:43:22.979Z,88.00
2019-04-29T18:45:56.263Z,88.10
2019-04-29T18:48:22.922Z,88.10
2019-04-29T18:50:52.172Z,88.20
2019-04-29T18:53:22.079Z,88.30
2019-04-29T18:55:58.005Z,88.50
2019-04-29T18:58:27.843Z,88.70
2019-04-29T19:00:57.987Z,88.60
2019-04-29T19:03:36.312Z,89.40
2019-04-29T19:06:10.042Z,89.10
2019-04-29T19:08:39.910Z,89.30
2019-04-29T19:11:12.353Z,90.20
2019-04-29T19:13:43.526Z,90.00
2019-04-29T19:16:21.578Z,90.20
2019-04-29T19:18:52.033Z,90.40
2019-04-29T19:21:30.489Z,90.70
2019-04-29T19:23:57.417Z,91.00
2019-04-29T19:26:27.653Z,91.20
2019-04-29T19:29:01.234Z,91.60
2019-04-29T19:31:29.850Z,91.90
2019-04-29T19:34:00.436Z,92.40
2019-04-29T19:36:32.539Z,92.90
2019-04-29T19:39:08.246Z,93.90
2019-04-29T19:41:38.711Z,94.20
2019-04-29T19:44:08.070Z,94.70
2019-04-29T19:46:41.285Z,95.30
2019-04-29T19:49:10.263Z,95.70
2019-04-29T19:51:43.583Z,96.20
2019-04-29T19:54:16.972Z,96.50
2019-04-29T19:56:55.562Z,96.90
2019-04-29T19:59:21.684Z,97.50
2019-04-29T20:01:56.318Z,97.60
2019-04-29T20:04:33.511Z,97.70
2019-04-29T20:07:08.746Z,98.10
2019-04-29T20:09:34.311Z,97.80
2019-04-29T20:14:59.744Z,98.00
2019-04-29T20:17:30.999Z,98.30
2019-04-29T20:20:12.126Z,98.40
2019-04-29T20:22:43.506Z,98.70
2019-04-29T20:25:12.398Z,99.20
2019-04-29T20:27:43.470Z,99.50
2019-04-29T20:30:17.594Z,99.50
2019-04-29T20:32:46.046Z,99.50
2019-04-29T20:35:18.296Z,99.50
2019-04-29T20:37:55.640Z,99.90
2019-04-29T20:40:23.241Z,99.90
2019-04-29T20:42:54.333Z,99.90
2019-04-29T20:45:27.213Z,99.90
2019-04-29T20:47:53.563Z,99.90
2019-04-29T20:50:27.581Z,99.90
2019-04-29T20:53:02.269Z,99.90
2019-04-29T20:55:31.983Z,99.90
2019-04-29T20:58:03.706Z,99.90
2019-04-29T21:00:37.277Z,99.90
2019-04-29T21:03:09.325Z,99.90
2019-04-29T21:05:48.281Z,99.90
2019-04-29T21:08:16.523Z,99.90
2019-04-29T21:10:46.717Z,99.90
2019-04-29T21:13:20.314Z,99.90
2019-04-29T21:15:53.767Z,99.90
2019-04-29T21:18:22.831Z,99.90
2019-04-29T21:20:55.042Z,99.90
2019-04-29T21:23:24.922Z,99.80
2019-04-29T21:25:55.989Z,99.90
2019-04-29T21:28:25.377Z,99.90
2019-04-29T21:30:55.956Z,99.90
2019-04-29T21:33:25.537Z,99.90
2019-04-29T21:36:15.501Z,99.90
2019-04-29T21:39:01.448Z,99.90
2019-04-29T21:41:38.794Z,99.70
2019-04-29T21:44:06.473Z,99.50
2019-04-29T21:46:37.360Z,99.30
2019-04-29T21:49:11.457Z,99.20
2019-04-29T21:51:41.721Z,99.10
2019-04-29T21:54:14.205Z,99.30
2019-04-29T21:56:47.819Z,99.60
2019-04-29T21:59:15.772Z,99.60
2019-04-29T22:01:46.090Z,99.40
2019-04-29T22:04:15.175Z,99.10
2019-04-29T22:06:45.850Z,99.00
2019-04-29T22:09:17.551Z,98.80
2019-04-29T22:11:46.984Z,98.30
2019-04-29T22:14:16.996Z,98.40
2019-04-29T22:16:47.605Z,98.60
2019-04-29T22:19:17.643Z,98.90
2019-04-29T22:21:52.769Z,99.30
2019-04-29T22:24:26.280Z,99.80
2019-04-29T22:26:56.474Z,99.90
2019-04-29T22:29:27.353Z,99.90
2019-04-29T22:31:57.763Z,99.90
2019-04-29T22:34:30.837Z,99.80
2019-04-29T22:37:05.374Z,99.90
2019-04-29T22:39:35.532Z,99.80
2019-04-29T22:42:08.622Z,99.60
2019-04-29T22:44:40.199Z,99.50
2019-04-29T22:47:10.950Z,99.10
2019-04-29T22:49:41.114Z,99.10
2019-04-29T22:52:09.731Z,98.60
2019-04-29T22:54:39.030Z,98.90
2019-04-29T22:57:07.870Z,99.00
2019-04-29T22:59:39.315Z,99.40
2019-04-29T23:02:12.917Z,99.40
2019-04-29T23:04:41.630Z,99.50
2019-04-29T23:07:17.628Z,99.50
2019-04-29T23:09:47.987Z,99.60
2019-04-29T23:12:18.580Z,99.60
2019-04-29T23:14:51.334Z,99.60
2019-04-29T23:17:22.556Z,99.90
2019-04-29T23:19:53.330Z,99.90
2019-04-29T23:22:26.315Z,99.90
2019-04-29T23:25:05.565Z,99.90
2019-04-29T23:27:36.045Z,99.90
2019-04-29T23:30:13.536Z,99.90
2019-04-29T23:32:44.269Z,99.90
2019-04-29T23:35:12.471Z,99.90
2019-04-29T23:37:42.452Z,99.90
2019-04-29T23:40:11.395Z,99.90
2019-04-29T23:42:43.653Z,99.90
2019-04-29T23:45:14.576Z,99.90
2019-04-29T23:47:49.284Z,99.90
2019-04-29T23:50:20.289Z,99.90
2019-04-29T23:52:51.954Z,99.90
2019-04-29T23:55:24.938Z,99.90
2019-04-29T23:57:55.531Z,99.90
